sensor_id;sensor_type;location;lat;lon;timestamp;P1;durP1;ratioP1;P2;durP2;ratioP2
1505;SDS011;744;51.436;7.356;2022-08-14T00:01:43;4.87;;;4.47;;
1505;SDS011;744;51.436;7.356;2022-08-14T00:04:20;9.10;;;5.40;;
1505;SDS011;744;51.436;7.356;2022-08-14T00:07:07;4.40;;;4.10;;
1505;SDS011;744;51.436;7.356;2022-08-14T00:09:35;5.20;;;4.80;;
1505;SDS011;744;51.436;7.356;2022-08-14T00:12:24;7.57;;;5.57;;
1505;SDS011;744;51.436;7.356;2022-08-14T00:15:15;5.80;;;5.30;;
1505;SDS011;744;51.436;7.356;2022-08-14T00:17:47;5.53;;;5.13;;
1505;SDS011;744;51.436;7.356;2022-08-14T00:20:20;5.73;;;4.70;;
1505;SDS011;744;51.436;7.356;2022-08-14T00:23:00;6.83;;;5.07;;
1505;SDS011;744;51.436;7.356;2022-08-14T00:25:40;6.00;;;5.50;;
1505;SDS011;744;51.436;7.356;2022-08-14T00:28:09;6.07;;;5.57;;
1505;SDS011;744;51.436;7.356;2022-08-14T00:30:41;7.80;;;5.13;;
1505;SDS011;744;51.436;7.356;2022-08-14T00:33:08;10.30;;;4.97;;
1505;SDS011;744;51.436;7.356;2022-08-14T00:35:42;5.37;;;4.87;;
1505;SDS011;744;51.436;7.356;2022-08-14T00:38:30;5.50;;;5.00;;
1505;SDS011;744;51.436;7.356;2022-08-14T00:41:00;5.30;;;4.80;;
1505;SDS011;744;51.436;7.356;2022-08-14T00:43:35;9.20;;;5.40;;
1505;SDS011;744;51.436;7.356;2022-08-14T00:46:08;5.77;;;5.27;;
1505;SDS011;744;51.436;7.356;2022-08-14T00:48:55;5.63;;;5.10;;
1505;SDS011;744;51.436;7.356;2022-08-14T00:51:23;6.00;;;5.50;;
1505;SDS011;744;51.436;7.356;2022-08-14T00:54:03;5.63;;;5.13;;
1505;SDS011;744;51.436;7.356;2022-08-14T00:56:46;5.40;;;5.00;;
1505;SDS011;744;51.436;7.356;2022-08-14T00:59:14;6.37;;;5.87;;
1505;SDS011;744;51.436;7.356;2022-08-14T01:01:41;7.00;;;5.60;;
1505;SDS011;744;51.436;7.356;2022-08-14T01:04:09;6.17;;;5.67;;
1505;SDS011;744;51.436;7.356;2022-08-14T01:06:57;6.10;;;5.60;;
1505;SDS011;744;51.436;7.356;2022-08-14T01:09:24;6.93;;;6.40;;
1505;SDS011;744;51.436;7.356;2022-08-14T01:11:53;9.40;;;6.43;;
1505;SDS011;744;51.436;7.356;2022-08-14T01:14:28;6.00;;;5.50;;
1505;SDS011;744;51.436;7.356;2022-08-14T01:16:56;6.17;;;5.63;;
1505;SDS011;744;51.436;7.356;2022-08-14T01:19:25;6.10;;;5.50;;
1505;SDS011;744;51.436;7.356;2022-08-14T01:22:13;5.23;;;4.93;;
1505;SDS011;744;51.436;7.356;2022-08-14T01:24:44;7.03;;;6.33;;
1505;SDS011;744;51.436;7.356;2022-08-14T01:27:15;7.07;;;6.57;;
1505;SDS011;744;51.436;7.356;2022-08-14T01:29:44;7.00;;;6.20;;
1505;SDS011;744;51.436;7.356;2022-08-14T01:32:30;6.23;;;5.63;;
1505;SDS011;744;51.436;7.356;2022-08-14T01:35:07;7.03;;;6.10;;
1505;SDS011;744;51.436;7.356;2022-08-14T01:37:54;7.73;;;7.07;;
1505;SDS011;744;51.436;7.356;2022-08-14T01:40:26;7.10;;;5.67;;
1505;SDS011;744;51.436;7.356;2022-08-14T01:43:10;6.03;;;5.53;;
1505;SDS011;744;51.436;7.356;2022-08-14T01:45:44;6.70;;;6.00;;
1505;SDS011;744;51.436;7.356;2022-08-14T01:48:31;6.70;;;6.10;;
1505;SDS011;744;51.436;7.356;2022-08-14T01:50:58;9.03;;;7.40;;
1505;SDS011;744;51.436;7.356;2022-08-14T01:53:28;8.03;;;7.23;;
1505;SDS011;744;51.436;7.356;2022-08-14T01:56:02;7.37;;;6.70;;
1505;SDS011;744;51.436;7.356;2022-08-14T01:58:37;6.93;;;6.33;;
1505;SDS011;744;51.436;7.356;2022-08-14T02:01:23;7.97;;;7.27;;
1505;SDS011;744;51.436;7.356;2022-08-14T02:03:52;6.90;;;6.20;;
1505;SDS011;744;51.436;7.356;2022-08-14T02:06:22;6.93;;;6.33;;
1505;SDS011;744;51.436;7.356;2022-08-14T02:08:58;6.83;;;6.23;;
1505;SDS011;744;51.436;7.356;2022-08-14T02:11:29;7.50;;;6.80;;
1505;SDS011;744;51.436;7.356;2022-08-14T02:13:57;8.97;;;7.17;;
1505;SDS011;744;51.436;7.356;2022-08-14T02:16:34;7.13;;;6.43;;
1505;SDS011;744;51.436;7.356;2022-08-14T02:19:05;7.30;;;6.70;;
1505;SDS011;744;51.436;7.356;2022-08-14T02:21:41;7.50;;;6.90;;
1505;SDS011;744;51.436;7.356;2022-08-14T02:24:14;7.53;;;6.83;;
1505;SDS011;744;51.436;7.356;2022-08-14T02:27:02;7.60;;;7.00;;
1505;SDS011;744;51.436;7.356;2022-08-14T02:29:50;7.27;;;6.67;;
1505;SDS011;744;51.436;7.356;2022-08-14T02:32:25;8.50;;;6.90;;
1505;SDS011;744;51.436;7.356;2022-08-14T02:35:01;6.83;;;6.33;;
1505;SDS011;744;51.436;7.356;2022-08-14T02:37:38;6.93;;;6.43;;
1505;SDS011;744;51.436;7.356;2022-08-14T02:40:13;6.47;;;5.97;;
1505;SDS011;744;51.436;7.356;2022-08-14T02:42:41;7.10;;;6.40;;
1505;SDS011;744;51.436;7.356;2022-08-14T02:45:20;8.00;;;6.40;;
1505;SDS011;744;51.436;7.356;2022-08-14T02:47:48;7.20;;;6.70;;
1505;SDS011;744;51.436;7.356;2022-08-14T02:50:22;8.30;;;7.50;;
1505;SDS011;744;51.436;7.356;2022-08-14T02:52:52;6.87;;;6.37;;
1505;SDS011;744;51.436;7.356;2022-08-14T02:55:23;7.77;;;7.07;;
1505;SDS011;744;51.436;7.356;2022-08-14T02:57:49;8.17;;;7.47;;
1505;SDS011;744;51.436;7.356;2022-08-14T03:00:29;8.80;;;7.90;;
1505;SDS011;744;51.436;7.356;2022-08-14T03:02:58;7.53;;;6.90;;
1505;SDS011;744;51.436;7.356;2022-08-14T03:05:27;6.97;;;6.40;;
1505;SDS011;744;51.436;7.356;2022-08-14T03:08:05;7.73;;;7.03;;
1505;SDS011;744;51.436;7.356;2022-08-14T03:10:34;8.27;;;7.60;;
1505;SDS011;744;51.436;7.356;2022-08-14T03:13:07;9.50;;;8.60;;
1505;SDS011;744;51.436;7.356;2022-08-14T03:15:45;8.70;;;7.80;;
1505;SDS011;744;51.436;7.356;2022-08-14T03:18:22;8.07;;;7.47;;
1505;SDS011;744;51.436;7.356;2022-08-14T03:21:05;7.63;;;7.00;;
1505;SDS011;744;51.436;7.356;2022-08-14T03:23:36;9.20;;;7.20;;
1505;SDS011;744;51.436;7.356;2022-08-14T03:26:05;7.67;;;6.33;;
1505;SDS011;744;51.436;7.356;2022-08-14T03:28:45;7.83;;;7.17;;
1505;SDS011;744;51.436;7.356;2022-08-14T03:31:13;7.33;;;6.70;;
1505;SDS011;744;51.436;7.356;2022-08-14T03:33:42;7.00;;;6.50;;
1505;SDS011;744;51.436;7.356;2022-08-14T03:36:10;8.10;;;7.30;;
1505;SDS011;744;51.436;7.356;2022-08-14T03:39:01;8.23;;;7.63;;
1505;SDS011;744;51.436;7.356;2022-08-14T03:41:48;9.80;;;7.07;;
1505;SDS011;744;51.436;7.356;2022-08-14T03:44:16;7.23;;;6.63;;
1505;SDS011;744;51.436;7.356;2022-08-14T03:47:02;7.70;;;6.90;;
1505;SDS011;744;51.436;7.356;2022-08-14T03:49:30;7.57;;;6.87;;
1505;SDS011;744;51.436;7.356;2022-08-14T03:51:59;7.80;;;7.20;;
1505;SDS011;744;51.436;7.356;2022-08-14T03:54:43;7.73;;;7.13;;
1505;SDS011;744;51.436;7.356;2022-08-14T03:57:17;7.47;;;6.87;;
1505;SDS011;744;51.436;7.356;2022-08-14T03:59:48;8.43;;;7.60;;
1505;SDS011;744;51.436;7.356;2022-08-14T04:02:14;12.00;;;7.50;;
1505;SDS011;744;51.436;7.356;2022-08-14T04:05:02;8.77;;;7.90;;
1505;SDS011;744;51.436;7.356;2022-08-14T04:07:38;11.70;;;8.60;;
1505;SDS011;744;51.436;7.356;2022-08-14T04:10:15;8.57;;;7.97;;
1505;SDS011;744;51.436;7.356;2022-08-14T04:12:56;9.20;;;8.27;;
1505;SDS011;744;51.436;7.356;2022-08-14T04:15:29;9.37;;;8.57;;
1505;SDS011;744;51.436;7.356;2022-08-14T04:18:16;9.67;;;8.97;;
1505;SDS011;744;51.436;7.356;2022-08-14T04:20:44;9.93;;;9.13;;
1505;SDS011;744;51.436;7.356;2022-08-14T04:23:21;10.40;;;9.50;;
1505;SDS011;744;51.436;7.356;2022-08-14T04:26:05;10.20;;;9.40;;
1505;SDS011;744;51.436;7.356;2022-08-14T04:28:51;10.53;;;9.30;;
1505;SDS011;744;51.436;7.356;2022-08-14T04:31:39;9.90;;;9.10;;
1505;SDS011;744;51.436;7.356;2022-08-14T04:34:26;10.77;;;9.77;;
1505;SDS011;744;51.436;7.356;2022-08-14T04:36:53;10.43;;;9.43;;
1505;SDS011;744;51.436;7.356;2022-08-14T04:39:47;10.17;;;9.20;;
1505;SDS011;744;51.436;7.356;2022-08-14T04:42:34;10.37;;;9.37;;
1505;SDS011;744;51.436;7.356;2022-08-14T04:45:21;13.80;;;10.00;;
1505;SDS011;744;51.436;7.356;2022-08-14T04:47:49;10.10;;;9.07;;
1505;SDS011;744;51.436;7.356;2022-08-14T04:50:48;11.53;;;9.60;;
1505;SDS011;744;51.436;7.356;2022-08-14T04:53:20;10.50;;;9.60;;
1505;SDS011;744;51.436;7.356;2022-08-14T04:56:00;9.90;;;9.10;;
1505;SDS011;744;51.436;7.356;2022-08-14T04:58:31;9.27;;;8.37;;
1505;SDS011;744;51.436;7.356;2022-08-14T05:01:04;10.30;;;9.47;;
1505;SDS011;744;51.436;7.356;2022-08-14T05:03:43;9.67;;;8.87;;
1505;SDS011;744;51.436;7.356;2022-08-14T05:06:10;9.70;;;8.90;;
1505;SDS011;744;51.436;7.356;2022-08-14T05:08:57;9.23;;;8.53;;
1505;SDS011;744;51.436;7.356;2022-08-14T05:11:25;8.73;;;8.03;;
1505;SDS011;744;51.436;7.356;2022-08-14T05:13:53;9.20;;;8.50;;
1505;SDS011;744;51.436;7.356;2022-08-14T05:16:41;10.40;;;9.37;;
1505;SDS011;744;51.436;7.356;2022-08-14T05:19:12;9.40;;;8.70;;
1505;SDS011;744;51.436;7.356;2022-08-14T05:21:50;9.37;;;8.57;;
1505;SDS011;744;51.436;7.356;2022-08-14T05:24:26;10.43;;;9.63;;
1505;SDS011;744;51.436;7.356;2022-08-14T05:26:54;9.67;;;8.87;;
1505;SDS011;744;51.436;7.356;2022-08-14T05:29:21;14.23;;;9.57;;
1505;SDS011;744;51.436;7.356;2022-08-14T05:31:48;8.70;;;7.90;;
1505;SDS011;744;51.436;7.356;2022-08-14T05:34:23;9.90;;;9.10;;
1505;SDS011;744;51.436;7.356;2022-08-14T05:36:57;12.03;;;8.57;;
1505;SDS011;744;51.436;7.356;2022-08-14T05:39:29;10.60;;;9.80;;
1505;SDS011;744;51.436;7.356;2022-08-14T05:41:57;10.37;;;9.40;;
1505;SDS011;744;51.436;7.356;2022-08-14T05:44:26;10.93;;;9.93;;
1505;SDS011;744;51.436;7.356;2022-08-14T05:46:56;14.13;;;10.57;;
1505;SDS011;744;51.436;7.356;2022-08-14T05:49:24;11.13;;;10.23;;
1505;SDS011;744;51.436;7.356;2022-08-14T05:51:59;9.83;;;9.03;;
1505;SDS011;744;51.436;7.356;2022-08-14T05:54:28;11.37;;;10.13;;
1505;SDS011;744;51.436;7.356;2022-08-14T05:57:01;11.17;;;10.07;;
1505;SDS011;744;51.436;7.356;2022-08-14T05:59:30;9.60;;;8.80;;
1505;SDS011;744;51.436;7.356;2022-08-14T06:02:05;10.70;;;9.80;;
1505;SDS011;744;51.436;7.356;2022-08-14T06:04:35;10.70;;;9.80;;
1505;SDS011;744;51.436;7.356;2022-08-14T06:07:03;9.77;;;8.97;;
1505;SDS011;744;51.436;7.356;2022-08-14T06:09:30;10.40;;;9.50;;
1505;SDS011;744;51.436;7.356;2022-08-14T06:12:01;10.03;;;9.23;;
1505;SDS011;744;51.436;7.356;2022-08-14T06:14:29;11.07;;;9.97;;
1505;SDS011;744;51.436;7.356;2022-08-14T06:16:57;10.13;;;9.33;;
1505;SDS011;744;51.436;7.356;2022-08-14T06:19:24;10.80;;;9.80;;
1505;SDS011;744;51.436;7.356;2022-08-14T06:21:52;17.47;;;10.53;;
1505;SDS011;744;51.436;7.356;2022-08-14T06:24:24;10.63;;;9.73;;
1505;SDS011;744;51.436;7.356;2022-08-14T06:26:51;10.47;;;9.60;;
1505;SDS011;744;51.436;7.356;2022-08-14T06:29:28;10.33;;;9.43;;
1505;SDS011;744;51.436;7.356;2022-08-14T06:31:57;11.17;;;10.30;;
1505;SDS011;744;51.436;7.356;2022-08-14T06:34:44;10.43;;;9.43;;
1505;SDS011;744;51.436;7.356;2022-08-14T06:37:42;12.13;;;11.00;;
1505;SDS011;744;51.436;7.356;2022-08-14T06:40:15;10.40;;;9.50;;
1505;SDS011;744;51.436;7.356;2022-08-14T06:42:54;12.07;;;10.97;;
1505;SDS011;744;51.436;7.356;2022-08-14T06:45:28;10.67;;;9.67;;
1505;SDS011;744;51.436;7.356;2022-08-14T06:47:56;9.40;;;8.50;;
1505;SDS011;744;51.436;7.356;2022-08-14T06:50:24;10.37;;;9.60;;
1505;SDS011;744;51.436;7.356;2022-08-14T06:52:55;11.37;;;10.10;;
1505;SDS011;744;51.436;7.356;2022-08-14T06:55:23;10.07;;;9.17;;
1505;SDS011;744;51.436;7.356;2022-08-14T06:57:53;9.30;;;8.50;;
1505;SDS011;744;51.436;7.356;2022-08-14T07:00:21;9.57;;;8.77;;
1505;SDS011;744;51.436;7.356;2022-08-14T07:02:55;12.37;;;11.07;;
1505;SDS011;744;51.436;7.356;2022-08-14T07:05:41;9.73;;;8.80;;
1505;SDS011;744;51.436;7.356;2022-08-14T07:08:27;10.07;;;9.17;;
1505;SDS011;744;51.436;7.356;2022-08-14T07:10:58;16.17;;;10.63;;
1505;SDS011;744;51.436;7.356;2022-08-14T07:13:27;10.30;;;9.50;;
1505;SDS011;744;51.436;7.356;2022-08-14T07:15:56;10.03;;;9.13;;
1505;SDS011;744;51.436;7.356;2022-08-14T07:18:28;11.00;;;9.53;;
1505;SDS011;744;51.436;7.356;2022-08-14T07:20:56;10.37;;;9.53;;
1505;SDS011;744;51.436;7.356;2022-08-14T07:23:24;9.13;;;8.43;;
1505;SDS011;744;51.436;7.356;2022-08-14T07:25:53;10.23;;;9.33;;
1505;SDS011;744;51.436;7.356;2022-08-14T07:28:45;9.67;;;8.77;;
1505;SDS011;744;51.436;7.356;2022-08-14T07:31:11;10.33;;;9.40;;
1505;SDS011;744;51.436;7.356;2022-08-14T07:33:39;10.50;;;9.60;;
1505;SDS011;744;51.436;7.356;2022-08-14T07:36:15;9.90;;;9.10;;
1505;SDS011;744;51.436;7.356;2022-08-14T07:38:59;10.03;;;9.07;;
1505;SDS011;744;51.436;7.356;2022-08-14T07:41:37;10.80;;;9.80;;
1505;SDS011;744;51.436;7.356;2022-08-14T07:44:03;9.43;;;8.73;;
1505;SDS011;744;51.436;7.356;2022-08-14T07:46:50;9.47;;;8.30;;
1505;SDS011;744;51.436;7.356;2022-08-14T07:49:17;9.57;;;8.67;;
1505;SDS011;744;51.436;7.356;2022-08-14T07:51:49;8.70;;;8.10;;
1505;SDS011;744;51.436;7.356;2022-08-14T07:54:16;8.13;;;7.53;;
1505;SDS011;744;51.436;7.356;2022-08-14T07:56:56;8.20;;;7.50;;
1505;SDS011;744;51.436;7.356;2022-08-14T07:59:37;8.67;;;7.87;;
1505;SDS011;744;51.436;7.356;2022-08-14T08:02:11;8.23;;;7.50;;
1505;SDS011;744;51.436;7.356;2022-08-14T08:04:45;7.77;;;7.17;;
1505;SDS011;744;51.436;7.356;2022-08-14T08:07:21;7.67;;;7.07;;
1505;SDS011;744;51.436;7.356;2022-08-14T08:09:55;9.03;;;8.23;;
1505;SDS011;744;51.436;7.356;2022-08-14T08:12:25;7.20;;;6.70;;
1505;SDS011;744;51.436;7.356;2022-08-14T08:14:56;8.50;;;7.90;;
1505;SDS011;744;51.436;7.356;2022-08-14T08:17:34;9.07;;;8.37;;
1505;SDS011;744;51.436;7.356;2022-08-14T08:20:22;9.90;;;9.00;;
1505;SDS011;744;51.436;7.356;2022-08-14T08:22:53;8.93;;;8.23;;
1505;SDS011;744;51.436;7.356;2022-08-14T08:25:32;8.60;;;7.43;;
1505;SDS011;744;51.436;7.356;2022-08-14T08:28:07;8.03;;;7.23;;
1505;SDS011;744;51.436;7.356;2022-08-14T08:30:54;7.83;;;7.20;;
1505;SDS011;744;51.436;7.356;2022-08-14T08:33:30;7.57;;;6.97;;
1505;SDS011;744;51.436;7.356;2022-08-14T08:36:03;8.10;;;7.50;;
1505;SDS011;744;51.436;7.356;2022-08-14T08:38:37;10.60;;;8.50;;
1505;SDS011;744;51.436;7.356;2022-08-14T08:41:24;7.43;;;6.90;;
1505;SDS011;744;51.436;7.356;2022-08-14T08:44:02;9.03;;;8.23;;
1505;SDS011;744;51.436;7.356;2022-08-14T08:46:30;8.23;;;7.63;;
1505;SDS011;744;51.436;7.356;2022-08-14T08:49:00;10.23;;;9.23;;
1505;SDS011;744;51.436;7.356;2022-08-14T08:51:28;9.03;;;8.33;;
1505;SDS011;744;51.436;7.356;2022-08-14T08:54:03;8.27;;;7.60;;
1505;SDS011;744;51.436;7.356;2022-08-14T08:56:48;7.87;;;7.27;;
1505;SDS011;744;51.436;7.356;2022-08-14T09:02:00;8.10;;;7.50;;
1505;SDS011;744;51.436;7.356;2022-08-14T09:04:34;7.00;;;6.30;;
1505;SDS011;744;51.436;7.356;2022-08-14T09:07:24;8.37;;;7.70;;
1505;SDS011;744;51.436;7.356;2022-08-14T09:09:53;8.20;;;7.50;;
1505;SDS011;744;51.436;7.356;2022-08-14T09:12:24;7.47;;;6.97;;
1505;SDS011;744;51.436;7.356;2022-08-14T09:14:58;8.73;;;7.90;;
1505;SDS011;744;51.436;7.356;2022-08-14T09:17:38;7.90;;;7.10;;
1505;SDS011;744;51.436;7.356;2022-08-14T09:20:07;7.90;;;6.90;;
1505;SDS011;744;51.436;7.356;2022-08-14T09:22:37;8.17;;;7.53;;
1505;SDS011;744;51.436;7.356;2022-08-14T09:25:14;8.70;;;8.07;;
1505;SDS011;744;51.436;7.356;2022-08-14T09:27:42;7.33;;;6.70;;
1505;SDS011;744;51.436;7.356;2022-08-14T09:30:09;7.60;;;6.90;;
1505;SDS011;744;51.436;7.356;2022-08-14T09:38:27;7.40;;;6.80;;
1505;SDS011;744;51.436;7.356;2022-08-14T09:41:04;6.83;;;6.33;;
1505;SDS011;744;51.436;7.356;2022-08-14T09:43:52;10.40;;;6.43;;
1505;SDS011;744;51.436;7.356;2022-08-14T09:46:29;6.17;;;5.57;;
1505;SDS011;744;51.436;7.356;2022-08-14T09:48:58;5.63;;;5.20;;
1505;SDS011;744;51.436;7.356;2022-08-14T09:51:30;6.30;;;5.73;;
1505;SDS011;744;51.436;7.356;2022-08-14T09:54:17;7.17;;;6.20;;
1505;SDS011;744;51.436;7.356;2022-08-14T09:56:49;7.90;;;7.20;;
1505;SDS011;744;51.436;7.356;2022-08-14T09:59:24;6.80;;;6.30;;
1505;SDS011;744;51.436;7.356;2022-08-14T10:01:57;6.90;;;6.40;;
1505;SDS011;744;51.436;7.356;2022-08-14T10:04:25;8.03;;;7.10;;
1505;SDS011;744;51.436;7.356;2022-08-14T10:07:03;6.50;;;6.00;;
1505;SDS011;744;51.436;7.356;2022-08-14T10:09:30;7.77;;;6.07;;
1505;SDS011;744;51.436;7.356;2022-08-14T10:12:00;6.30;;;5.90;;
1505;SDS011;744;51.436;7.356;2022-08-14T10:14:31;6.50;;;5.90;;
1505;SDS011;744;51.436;7.356;2022-08-14T10:17:02;7.20;;;6.40;;
1505;SDS011;744;51.436;7.356;2022-08-14T10:19:32;10.03;;;7.50;;
1505;SDS011;744;51.436;7.356;2022-08-14T10:24:48;6.23;;;5.83;;
1505;SDS011;744;51.436;7.356;2022-08-14T10:27:20;7.87;;;6.27;;
1505;SDS011;744;51.436;7.356;2022-08-14T10:29:53;6.10;;;5.70;;
1505;SDS011;744;51.436;7.356;2022-08-14T10:32:23;6.70;;;6.00;;
1505;SDS011;744;51.436;7.356;2022-08-14T10:35:07;6.23;;;5.77;;
1505;SDS011;744;51.436;7.356;2022-08-14T10:37:47;6.57;;;6.03;;
1505;SDS011;744;51.436;7.356;2022-08-14T10:40:26;6.20;;;5.70;;
1505;SDS011;744;51.436;7.356;2022-08-14T10:43:24;5.40;;;5.00;;
1505;SDS011;744;51.436;7.356;2022-08-14T10:45:55;7.67;;;7.07;;
1505;SDS011;744;51.436;7.356;2022-08-14T10:48:56;6.67;;;6.13;;
1505;SDS011;744;51.436;7.356;2022-08-14T10:51:29;7.70;;;7.07;;
1505;SDS011;744;51.436;7.356;2022-08-14T10:54:07;7.73;;;7.13;;
1505;SDS011;744;51.436;7.356;2022-08-14T10:56:56;7.23;;;6.00;;
1505;SDS011;744;51.436;7.356;2022-08-14T10:59:24;6.37;;;5.93;;
1505;SDS011;744;51.436;7.356;2022-08-14T11:02:03;6.90;;;6.33;;
1505;SDS011;744;51.436;7.356;2022-08-14T11:05:12;6.53;;;6.03;;
1505;SDS011;744;51.436;7.356;2022-08-14T11:10:22;7.17;;;6.63;;
1505;SDS011;744;51.436;7.356;2022-08-14T11:12:56;8.13;;;6.20;;
1505;SDS011;744;51.436;7.356;2022-08-14T11:15:24;7.10;;;6.40;;
1505;SDS011;744;51.436;7.356;2022-08-14T11:17:53;6.13;;;5.53;;
1505;SDS011;744;51.436;7.356;2022-08-14T11:20:27;6.70;;;6.20;;
1505;SDS011;744;51.436;7.356;2022-08-14T11:22:56;7.30;;;6.70;;
1505;SDS011;744;51.436;7.356;2022-08-14T11:25:26;7.80;;;7.10;;
1505;SDS011;744;51.436;7.356;2022-08-14T11:28:09;6.57;;;6.07;;
1505;SDS011;744;51.436;7.356;2022-08-14T11:30:44;6.40;;;6.00;;
1505;SDS011;744;51.436;7.356;2022-08-14T11:33:23;6.83;;;6.13;;
1505;SDS011;744;51.436;7.356;2022-08-14T11:35:54;7.63;;;7.03;;
1505;SDS011;744;51.436;7.356;2022-08-14T11:38:25;6.57;;;6.07;;
1505;SDS011;744;51.436;7.356;2022-08-14T11:41:11;6.80;;;6.30;;
1505;SDS011;744;51.436;7.356;2022-08-14T11:43:43;7.00;;;6.43;;
1505;SDS011;744;51.436;7.356;2022-08-14T11:46:23;6.70;;;6.30;;
1505;SDS011;744;51.436;7.356;2022-08-14T11:49:02;11.37;;;10.67;;
1505;SDS011;744;51.436;7.356;2022-08-14T11:51:31;7.40;;;6.80;;
1505;SDS011;744;51.436;7.356;2022-08-14T11:54:18;6.87;;;6.40;;
1505;SDS011;744;51.436;7.356;2022-08-14T11:56:59;7.67;;;7.07;;
1505;SDS011;744;51.436;7.356;2022-08-14T11:59:26;7.00;;;6.50;;
1505;SDS011;744;51.436;7.356;2022-08-14T12:02:08;7.10;;;6.50;;
1505;SDS011;744;51.436;7.356;2022-08-14T12:04:56;7.20;;;6.50;;
1505;SDS011;744;51.436;7.356;2022-08-14T12:07:24;6.90;;;6.40;;
1505;SDS011;744;51.436;7.356;2022-08-14T12:09:51;7.07;;;6.57;;
1505;SDS011;744;51.436;7.356;2022-08-14T12:12:22;7.73;;;6.60;;
1505;SDS011;744;51.436;7.356;2022-08-14T12:15:02;6.57;;;6.00;;
1505;SDS011;744;51.436;7.356;2022-08-14T12:17:42;6.90;;;6.40;;
1505;SDS011;744;51.436;7.356;2022-08-14T12:20:17;6.57;;;6.17;;
1505;SDS011;744;51.436;7.356;2022-08-14T12:23:07;6.30;;;5.90;;
1505;SDS011;744;51.436;7.356;2022-08-14T12:26:00;6.67;;;6.27;;
1505;SDS011;744;51.436;7.356;2022-08-14T12:31:41;6.07;;;5.40;;
1505;SDS011;744;51.436;7.356;2022-08-14T12:34:16;6.43;;;5.93;;
1505;SDS011;744;51.436;7.356;2022-08-14T12:36:47;6.37;;;5.73;;
1505;SDS011;744;51.436;7.356;2022-08-14T12:39:19;22.10;;;16.20;;
1505;SDS011;744;51.436;7.356;2022-08-14T12:41:50;6.63;;;6.13;;
1505;SDS011;744;51.436;7.356;2022-08-14T12:44:35;8.80;;;8.10;;
1505;SDS011;744;51.436;7.356;2022-08-14T12:47:07;6.50;;;5.90;;
1505;SDS011;744;51.436;7.356;2022-08-14T12:49:46;6.90;;;6.40;;
1505;SDS011;744;51.436;7.356;2022-08-14T12:52:27;6.60;;;5.40;;
1505;SDS011;744;51.436;7.356;2022-08-14T12:55:15;5.80;;;5.40;;
1505;SDS011;744;51.436;7.356;2022-08-14T12:57:44;5.40;;;5.00;;
1505;SDS011;744;51.436;7.356;2022-08-14T13:00:19;4.73;;;4.43;;
1505;SDS011;744;51.436;7.356;2022-08-14T13:02:53;5.13;;;4.83;;
1505;SDS011;744;51.436;7.356;2022-08-14T13:05:23;6.33;;;5.73;;
1505;SDS011;744;51.436;7.356;2022-08-14T13:07:52;5.50;;;5.10;;
1505;SDS011;744;51.436;7.356;2022-08-14T13:10:20;6.50;;;5.03;;
1505;SDS011;744;51.436;7.356;2022-08-14T13:13:07;5.80;;;5.40;;
1505;SDS011;744;51.436;7.356;2022-08-14T13:15:44;6.03;;;5.53;;
1505;SDS011;744;51.436;7.356;2022-08-14T13:18:15;4.67;;;4.37;;
1505;SDS011;744;51.436;7.356;2022-08-14T13:20:42;5.50;;;5.00;;
1505;SDS011;744;51.436;7.356;2022-08-14T13:23:17;4.63;;;4.33;;
1505;SDS011;744;51.436;7.356;2022-08-14T13:25:57;6.10;;;5.60;;
1505;SDS011;744;51.436;7.356;2022-08-14T13:28:25;5.93;;;5.43;;
1505;SDS011;744;51.436;7.356;2022-08-14T13:31:00;5.37;;;4.97;;
1505;SDS011;744;51.436;7.356;2022-08-14T13:33:37;5.90;;;5.50;;
1505;SDS011;744;51.436;7.356;2022-08-14T13:36:06;6.43;;;4.67;;
1505;SDS011;744;51.436;7.356;2022-08-14T13:38:36;6.37;;;5.60;;
1505;SDS011;744;51.436;7.356;2022-08-14T13:41:04;4.90;;;4.50;;
1505;SDS011;744;51.436;7.356;2022-08-14T13:43:31;3.93;;;3.70;;
1505;SDS011;744;51.436;7.356;2022-08-14T13:46:14;5.73;;;5.37;;
1505;SDS011;744;51.436;7.356;2022-08-14T13:48:40;4.83;;;4.43;;
1505;SDS011;744;51.436;7.356;2022-08-14T13:51:09;8.33;;;4.77;;
1505;SDS011;744;51.436;7.356;2022-08-14T13:53:45;5.27;;;4.87;;
1505;SDS011;744;51.436;7.356;2022-08-14T13:56:39;3.97;;;3.77;;
1505;SDS011;744;51.436;7.356;2022-08-14T13:59:07;4.50;;;4.10;;
1505;SDS011;744;51.436;7.356;2022-08-14T14:01:36;4.70;;;4.40;;
1505;SDS011;744;51.436;7.356;2022-08-14T14:04:11;5.37;;;4.93;;
1505;SDS011;744;51.436;7.356;2022-08-14T14:06:46;5.83;;;5.40;;
1505;SDS011;744;51.436;7.356;2022-08-14T14:09:15;6.00;;;5.50;;
1505;SDS011;744;51.436;7.356;2022-08-14T14:11:50;5.73;;;5.37;;
1505;SDS011;744;51.436;7.356;2022-08-14T14:14:18;5.27;;;4.87;;
1505;SDS011;744;51.436;7.356;2022-08-14T14:17:07;5.60;;;5.10;;
1505;SDS011;744;51.436;7.356;2022-08-14T14:19:40;5.83;;;5.33;;
1505;SDS011;744;51.436;7.356;2022-08-14T14:22:13;5.50;;;5.10;;
1505;SDS011;744;51.436;7.356;2022-08-14T14:25:01;5.17;;;4.63;;
1505;SDS011;744;51.436;7.356;2022-08-14T14:27:28;5.20;;;4.80;;
1505;SDS011;744;51.436;7.356;2022-08-14T14:30:06;5.57;;;5.17;;
1505;SDS011;744;51.436;7.356;2022-08-14T14:32:54;5.37;;;4.97;;
1505;SDS011;744;51.436;7.356;2022-08-14T14:35:31;4.80;;;4.47;;
1505;SDS011;744;51.436;7.356;2022-08-14T14:38:05;4.97;;;4.67;;
1505;SDS011;744;51.436;7.356;2022-08-14T14:40:34;5.60;;;5.20;;
1505;SDS011;744;51.436;7.356;2022-08-14T14:43:19;7.50;;;5.73;;
1505;SDS011;744;51.436;7.356;2022-08-14T14:45:48;5.30;;;4.90;;
1505;SDS011;744;51.436;7.356;2022-08-14T14:48:18;4.70;;;4.30;;
1505;SDS011;744;51.436;7.356;2022-08-14T14:50:45;5.40;;;5.03;;
1505;SDS011;744;51.436;7.356;2022-08-14T14:53:18;6.77;;;5.80;;
1505;SDS011;744;51.436;7.356;2022-08-14T14:55:46;5.30;;;4.90;;
1505;SDS011;744;51.436;7.356;2022-08-14T14:58:33;5.50;;;4.93;;
1505;SDS011;744;51.436;7.356;2022-08-14T15:01:03;4.90;;;4.50;;
1505;SDS011;744;51.436;7.356;2022-08-14T15:03:36;5.37;;;4.97;;
1505;SDS011;744;51.436;7.356;2022-08-14T15:06:04;5.97;;;4.80;;
1505;SDS011;744;51.436;7.356;2022-08-14T15:08:32;5.90;;;5.47;;
1505;SDS011;744;51.436;7.356;2022-08-14T15:11:19;6.70;;;5.60;;
1505;SDS011;744;51.436;7.356;2022-08-14T15:13:48;5.30;;;4.90;;
1505;SDS011;744;51.436;7.356;2022-08-14T15:16:18;6.40;;;5.90;;
1505;SDS011;744;51.436;7.356;2022-08-14T15:18:45;6.63;;;6.03;;
1505;SDS011;744;51.436;7.356;2022-08-14T15:21:14;6.40;;;5.90;;
1505;SDS011;744;51.436;7.356;2022-08-14T15:23:41;5.30;;;4.80;;
1505;SDS011;744;51.436;7.356;2022-08-14T15:26:10;6.40;;;5.80;;
1505;SDS011;744;51.436;7.356;2022-08-14T15:28:57;6.40;;;6.00;;
1505;SDS011;744;51.436;7.356;2022-08-14T15:31:32;4.97;;;4.67;;
1505;SDS011;744;51.436;7.356;2022-08-14T15:34:02;4.63;;;4.33;;
1505;SDS011;744;51.436;7.356;2022-08-14T15:37:00;7.30;;;6.70;;
1505;SDS011;744;51.436;7.356;2022-08-14T15:39:33;7.57;;;5.90;;
1505;SDS011;744;51.436;7.356;2022-08-14T15:42:03;8.10;;;5.30;;
1505;SDS011;744;51.436;7.356;2022-08-14T15:44:42;5.47;;;5.07;;
1505;SDS011;744;51.436;7.356;2022-08-14T15:47:27;6.83;;;6.23;;
1505;SDS011;744;51.436;7.356;2022-08-14T15:49:56;5.97;;;5.57;;
1505;SDS011;744;51.436;7.356;2022-08-14T15:52:29;5.23;;;4.17;;
1505;SDS011;744;51.436;7.356;2022-08-14T15:55:03;4.97;;;4.67;;
1505;SDS011;744;51.436;7.356;2022-08-14T15:57:33;5.20;;;4.30;;
1505;SDS011;744;51.436;7.356;2022-08-14T16:00:02;5.23;;;4.83;;
1505;SDS011;744;51.436;7.356;2022-08-14T16:03:09;4.73;;;4.43;;
1505;SDS011;744;51.436;7.356;2022-08-14T16:05:41;5.53;;;5.00;;
1505;SDS011;744;51.436;7.356;2022-08-14T16:08:10;5.07;;;4.77;;
1505;SDS011;744;51.436;7.356;2022-08-14T16:10:54;5.23;;;4.83;;
1505;SDS011;744;51.436;7.356;2022-08-14T16:13:21;5.53;;;5.13;;
1505;SDS011;744;51.436;7.356;2022-08-14T16:18:56;4.80;;;4.40;;
1505;SDS011;744;51.436;7.356;2022-08-14T16:21:24;5.07;;;4.77;;
1505;SDS011;744;51.436;7.356;2022-08-14T16:23:56;5.53;;;5.03;;
1505;SDS011;744;51.436;7.356;2022-08-14T16:26:25;15.97;;;14.47;;
1505;SDS011;744;51.436;7.356;2022-08-14T16:28:58;11.27;;;10.17;;
1505;SDS011;744;51.436;7.356;2022-08-14T16:31:29;12.57;;;11.47;;
1505;SDS011;744;51.436;7.356;2022-08-14T16:34:02;6.63;;;6.03;;
1505;SDS011;744;51.436;7.356;2022-08-14T16:36:50;7.63;;;7.03;;